VABB Airport Information

Runway Information
Runway 09 Length 11302 ft width 148 ft
Elevation 15 ft Threshold 465 ft Heading 89
Runway 27 Length 11302 ft Width 148 ft
Elevation 22 ft Threshold 1581 ft Heading 269
Runway 14 Length 9596 ft width 150 ft
Elevation 37 ft Threshold 1238 ft Heading 134
Runway 32 Length 9596 ft Width 150 ft
Elevation 26 ft Threshold 853 ft Heading 314
Airport Frequencies
Type ACC Name MUMBAI Frequency 120.5 MHZ
Type APP Name MUMBAI APP Frequency 127.9 MHZ
Type ATIS Name MUMBAI ATI Frequency 126.4 MHZ
Type CLD Name MUMBAI CLR Frequency 121.85 MHZ
Type GND Name MUMBAI GND Frequency 121.9 MHZ
Type RDO Name MUMBAI RDO Frequency 1008.4 MHZ
Type RDR Name RDR Frequency 119.3 MHZ
Type TWR Name MUMBAI TWR Frequency 118.1 MHZ
Airport Navaids
Type VOR-DME Name Mumbai Frequency 116600 KHZ
Airport Weather Information & NOTAM
ADDS - METARS form results

(0144 UTC 23 April 2018)
 
METAR text: VABB 230130Z 08004KT 3500 BR NSC 27/23 Q1010 NOSIG
Conditions at: VABB (BOMBAY/SANTACRUZ, IN) observed 0130 UTC 23 April 2018
Temperature: 27.0°C (81°F)
Dewpoint: 23.0°C (73°F) [RH = 79%]
Pressure (altimeter): 29.82 inches Hg (1010.0 mb)
Winds: from the E (80 degrees) at 5 MPH (4 knots; 2.1 m/s)
Visibility: 2.17 miles (3.49 km)
Ceiling: at least 12,000 feet AGL
Clouds: sky clear below 12,000 feet AGL
Weather: BR  (mist)

METAR text: VABB 230100Z 10005KT 3500 BR NSC 27/23 Q1010 NOSIG
Conditions at: VABB (BOMBAY/SANTACRUZ, IN) observed 0100 UTC 23 April 2018
Temperature: 27.0°C (81°F)
Dewpoint: 23.0°C (73°F) [RH = 79%]
Pressure (altimeter): 29.82 inches Hg (1010.0 mb)
Winds: from the E (100 degrees) at 6 MPH (5 knots; 2.6 m/s)
Visibility: 2.17 miles (3.49 km)
Ceiling: at least 12,000 feet AGL
Clouds: sky clear below 12,000 feet AGL
Weather: BR  (mist)